Terminal Aerodrome Forecast
Issued by NWS Wilmington, OH

Current Version | Previous Version | Graphics & Text | Print | Product List | Glossary On
Versions: 1 2 3 4 5 6 7 8 9 10 11 12 13
458
FTUS41 KILN 181135
TAFDAY
TAF
KDAY 181135Z 1812/1912 18005KT P6SM SKC
     FM181600 20010KT P6SM SKC
     FM182300 19006KT P6SM SKC=

USA.gov is the U.S. government's official web portal to all federal, state and local government web resources and services.